createdAt,value
2019-03-31T00:00:01.162Z,86.50
2019-03-31T00:02:31.201Z,86.50
2019-03-31T00:05:04.010Z,86.60
2019-03-31T00:07:34.451Z,86.60
2019-03-31T00:10:08.386Z,86.60
2019-03-31T00:12:38.316Z,86.50
2019-03-31T00:15:09.043Z,86.50
2019-03-31T00:17:38.964Z,86.60
2019-03-31T00:20:09.149Z,86.70
2019-03-31T00:22:38.978Z,86.70
2019-03-31T00:25:08.894Z,86.80
2019-03-31T00:27:38.794Z,86.80
2019-03-31T00:30:13.220Z,86.80
2019-03-31T00:32:43.072Z,86.80
2019-03-31T00:35:12.884Z,87.00
2019-03-31T00:37:43.369Z,87.00
2019-03-31T00:40:13.378Z,87.00
2019-03-31T00:42:44.559Z,86.90
2019-03-31T00:45:14.883Z,87.00
2019-03-31T00:47:45.268Z,86.90
2019-03-31T00:50:15.719Z,86.90
2019-03-31T00:52:45.626Z,86.80
2019-03-31T00:55:15.800Z,87.10
2019-03-31T00:57:45.702Z,87.00
2019-03-31T01:00:38.775Z,87.10
2019-03-31T01:03:08.733Z,87.20
2019-03-31T01:05:41.031Z,87.10
2019-03-31T01:08:11.310Z,87.10
2019-03-31T01:10:42.176Z,87.20
2019-03-31T01:13:12.580Z,87.30
2019-03-31T01:15:44.057Z,87.30
2019-03-31T01:18:15.147Z,87.30
2019-03-31T01:20:45.289Z,87.10
2019-03-31T01:23:15.183Z,87.20
2019-03-31T01:25:45.162Z,87.20
2019-03-31T01:28:15.039Z,87.20
2019-03-31T01:30:45.034Z,87.40
2019-03-31T01:33:15.355Z,87.50
2019-03-31T01:35:45.192Z,87.40
2019-03-31T01:38:15.046Z,87.50
2019-03-31T01:40:44.831Z,87.50
2019-03-31T01:43:14.724Z,87.60
2019-03-31T01:45:45.646Z,87.60
2019-03-31T01:48:15.759Z,87.70
2019-03-31T01:50:45.971Z,87.80
2019-03-31T01:53:15.925Z,87.90
2019-03-31T01:55:45.795Z,87.90
2019-03-31T01:58:15.793Z,88.10
2019-03-31T02:00:47.606Z,88.00
2019-03-31T02:03:17.586Z,88.10
2019-03-31T02:05:47.439Z,88.10
2019-03-31T02:08:18.176Z,88.20
2019-03-31T02:10:48.607Z,88.20
2019-03-31T02:13:18.524Z,88.30
2019-03-31T02:15:49.083Z,88.40
2019-03-31T02:18:18.931Z,88.40
2019-03-31T02:20:48.769Z,88.40
2019-03-31T02:23:18.956Z,88.70
2019-03-31T02:25:48.830Z,88.90
2019-03-31T02:28:18.670Z,88.90
2019-03-31T02:30:49.607Z,89.00
2019-03-31T02:33:19.542Z,89.20
2019-03-31T02:35:49.577Z,89.20
2019-03-31T02:38:20.279Z,89.30
2019-03-31T02:40:50.112Z,89.30
2019-03-31T02:43:19.921Z,89.40
2019-03-31T02:45:49.807Z,89.60
2019-03-31T02:48:20.873Z,89.50
2019-03-31T02:50:52.825Z,89.70
2019-03-31T02:53:24.313Z,89.70
2019-03-31T02:55:57.134Z,89.90
2019-03-31T02:58:29.591Z,89.90
2019-03-31T03:00:59.881Z,89.90
2019-03-31T03:03:32.353Z,90.00
2019-03-31T03:06:05.354Z,90.00
2019-03-31T03:08:40.291Z,90.10
2019-03-31T03:12:09.485Z,90.10
2019-03-31T03:14:40.091Z,90.10
2019-03-31T03:17:09.896Z,90.20
2019-03-31T03:19:39.756Z,90.20
2019-03-31T03:22:10.307Z,90.20
2019-03-31T03:24:40.188Z,90.30
2019-03-31T03:27:10.146Z,90.30
2019-03-31T03:29:39.904Z,90.40
2019-03-31T03:32:09.796Z,90.40
2019-03-31T03:34:39.706Z,90.40
2019-03-31T03:37:09.567Z,90.40
2019-03-31T03:39:39.380Z,90.40
2019-03-31T03:42:09.655Z,90.40
2019-03-31T03:44:40.258Z,90.50
2019-03-31T03:47:10.800Z,90.50
2019-03-31T03:49:40.681Z,90.50
2019-03-31T03:52:12.558Z,90.50
2019-03-31T03:54:42.556Z,90.50
2019-03-31T03:57:12.417Z,90.50
2019-03-31T03:59:42.481Z,90.60
2019-03-31T04:02:12.349Z,90.50
2019-03-31T04:04:42.184Z,90.50
2019-03-31T04:07:12.784Z,90.50
2019-03-31T04:09:43.474Z,90.50
2019-03-31T04:12:14.150Z,90.40
2019-03-31T04:14:45.404Z,90.40
2019-03-31T04:17:15.363Z,90.30
2019-03-31T04:19:45.093Z,90.30
2019-03-31T04:22:15.981Z,90.20
2019-03-31T04:24:45.928Z,90.30
2019-03-31T04:27:18.941Z,90.30
2019-03-31T04:29:47.377Z,90.30
2019-03-31T04:32:17.248Z,90.30
2019-03-31T04:34:47.910Z,90.30
2019-03-31T04:37:18.021Z,90.30
2019-03-31T04:39:49.342Z,90.30
2019-03-31T04:42:19.289Z,90.30
2019-03-31T04:44:50.644Z,90.20
2019-03-31T04:47:20.645Z,90.20
2019-03-31T04:49:50.503Z,90.20
2019-03-31T04:52:20.281Z,90.20
2019-03-31T04:54:50.473Z,90.10
2019-03-31T04:57:20.270Z,90.00
2019-03-31T04:59:50.038Z,90.00
2019-03-31T05:02:19.918Z,90.00
2019-03-31T05:04:49.904Z,89.90
2019-03-31T05:07:20.303Z,89.80
2019-03-31T05:09:50.466Z,89.80
2019-03-31T05:12:21.301Z,89.90
2019-03-31T05:14:52.019Z,89.70
2019-03-31T05:17:22.157Z,89.70
2019-03-31T05:19:53.472Z,89.80
2019-03-31T05:22:25.612Z,90.20
2019-03-31T05:30:48.599Z,90.00
2019-03-31T05:33:24.610Z,90.00
2019-03-31T05:36:01.889Z,90.00
2019-03-31T05:38:39.563Z,90.00
2019-03-31T05:41:18.437Z,90.10
2019-03-31T05:44:05.570Z,90.10
2019-03-31T05:49:31.953Z,90.20
2019-03-31T05:52:21.478Z,90.30
2019-03-31T05:57:48.444Z,90.30
2019-03-31T06:00:53.951Z,90.50
2019-03-31T06:06:20.235Z,90.60
2019-03-31T06:09:03.084Z,90.50
2019-03-31T06:11:33.649Z,90.60
2019-03-31T06:17:39.277Z,90.80
2019-03-31T06:23:24.148Z,90.90
2019-03-31T06:32:18.619Z,91.00
2019-03-31T06:35:00.392Z,91.00
2019-03-31T06:37:52.086Z,91.00
2019-03-31T06:40:31.397Z,91.00
2019-03-31T06:43:05.934Z,91.00
2019-03-31T06:45:44.744Z,91.00
2019-03-31T06:48:19.241Z,91.00
2019-03-31T06:50:49.769Z,91.00
2019-03-31T06:53:19.795Z,91.00
2019-03-31T06:56:06.325Z,91.00
2019-03-31T06:58:52.260Z,91.00
2019-03-31T07:01:26.756Z,91.10
2019-03-31T07:03:56.891Z,91.00
2019-03-31T07:06:26.796Z,91.10
2019-03-31T07:08:56.621Z,91.00
2019-03-31T07:11:27.040Z,91.00
2019-03-31T07:13:57.133Z,91.10
2019-03-31T07:16:27.768Z,91.10
2019-03-31T07:18:58.242Z,91.10
2019-03-31T07:21:29.253Z,91.00
2019-03-31T07:24:00.016Z,91.00
2019-03-31T07:26:30.226Z,91.00
2019-03-31T07:29:00.149Z,91.10
2019-03-31T07:31:33.340Z,91.10
2019-03-31T07:34:04.964Z,91.20
2019-03-31T07:36:42.792Z,91.10
2019-03-31T07:39:16.755Z,91.10
2019-03-31T07:41:48.202Z,91.10
2019-03-31T07:44:20.006Z,91.10
2019-03-31T07:46:52.275Z,91.20
2019-03-31T07:49:24.588Z,91.20
2019-03-31T07:51:55.592Z,91.20
2019-03-31T07:54:26.035Z,91.20
2019-03-31T07:56:56.016Z,91.20
2019-03-31T07:59:26.049Z,91.20
2019-03-31T08:02:15.519Z,91.10
2019-03-31T08:04:45.486Z,91.20
2019-03-31T08:07:17.455Z,91.20
2019-03-31T08:09:48.228Z,91.10
2019-03-31T08:12:20.158Z,91.10
2019-03-31T08:14:50.027Z,91.00
2019-03-31T08:17:20.422Z,91.00
2019-03-31T08:19:50.207Z,91.30
2019-03-31T08:22:24.831Z,91.00
2019-03-31T08:24:57.170Z,90.90
2019-03-31T08:27:47.391Z,90.70
2019-03-31T08:30:20.052Z,90.50
2019-03-31T08:33:07.978Z,90.20
2019-03-31T08:35:47.384Z,90.10
2019-03-31T08:38:10.049Z,89.50
2019-03-31T08:40:39.879Z,89.10
2019-03-31T08:43:19.790Z,88.60
2019-03-31T08:45:51.238Z,88.10
2019-03-31T08:48:21.147Z,87.40
2019-03-31T08:50:50.978Z,86.70
2019-03-31T08:53:20.861Z,86.50
2019-03-31T08:55:50.879Z,85.90
2019-03-31T08:58:21.480Z,85.40
2019-03-31T09:00:56.422Z,84.80
2019-03-31T09:03:27.299Z,84.20
2019-03-31T09:06:02.070Z,83.60
2019-03-31T09:08:28.808Z,82.80
2019-03-31T09:10:59.511Z,81.80
2019-03-31T09:13:29.810Z,81.70
2019-03-31T09:16:00.442Z,81.40
2019-03-31T09:18:30.252Z,80.60
2019-03-31T09:21:00.212Z,80.80
2019-03-31T09:23:30.129Z,80.30
2019-03-31T09:26:00.545Z,78.90
2019-03-31T09:28:30.329Z,78.90
2019-03-31T09:31:00.094Z,78.10
2019-03-31T09:33:30.309Z,77.80
2019-03-31T09:36:14.891Z,77.30
2019-03-31T09:38:32.187Z,77.50
2019-03-31T09:41:02.100Z,77.20
2019-03-31T09:43:32.709Z,77.70
2019-03-31T09:46:02.594Z,78.50
2019-03-31T09:48:32.476Z,78.20
2019-03-31T09:51:02.331Z,77.50
2019-03-31T09:53:32.177Z,77.00
2019-03-31T09:56:02.075Z,76.80
2019-03-31T09:58:32.098Z,76.30
2019-03-31T10:01:01.911Z,76.40
2019-03-31T10:03:31.769Z,76.30
2019-03-31T10:06:10.474Z,76.30
2019-03-31T10:08:33.258Z,76.30
2019-03-31T10:11:03.213Z,76.20
2019-03-31T10:13:32.997Z,76.10
2019-03-31T10:16:03.820Z,76.10
2019-03-31T10:18:33.771Z,75.80
2019-03-31T10:21:06.229Z,76.00
2019-03-31T10:23:37.057Z,75.50
2019-03-31T10:26:06.909Z,75.40
2019-03-31T10:28:36.820Z,75.00
2019-03-31T10:31:06.804Z,75.00
2019-03-31T10:33:36.722Z,74.90
2019-03-31T10:36:12.700Z,75.10
2019-03-31T10:38:41.229Z,75.00
2019-03-31T10:41:16.570Z,75.10
2019-03-31T10:43:46.478Z,75.20
2019-03-31T10:46:16.299Z,75.20
2019-03-31T10:48:46.129Z,75.70
2019-03-31T10:51:17.175Z,75.70
2019-03-31T10:53:47.055Z,75.60
2019-03-31T10:56:17.728Z,75.50
2019-03-31T10:58:47.606Z,75.60
2019-03-31T11:01:19.089Z,75.60
2019-03-31T11:03:50.403Z,75.70
2019-03-31T11:06:23.004Z,76.00
2019-03-31T11:08:53.218Z,75.80
2019-03-31T11:11:23.888Z,75.60
2019-03-31T11:13:53.752Z,75.60
2019-03-31T11:16:24.610Z,75.80
2019-03-31T11:18:54.394Z,75.80
2019-03-31T11:21:25.864Z,75.60
2019-03-31T11:23:56.591Z,75.00
2019-03-31T11:26:26.359Z,74.50
2019-03-31T11:28:57.730Z,74.50
2019-03-31T11:31:28.477Z,74.30
2019-03-31T11:33:58.411Z,73.80
2019-03-31T11:36:29.101Z,74.00
2019-03-31T11:38:58.943Z,73.80
2019-03-31T11:41:28.883Z,73.50
2019-03-31T11:43:59.525Z,73.60
2019-03-31T11:46:29.370Z,73.70
2019-03-31T11:49:01.147Z,74.10
2019-03-31T11:51:30.873Z,74.40
2019-03-31T11:54:01.239Z,74.40
2019-03-31T11:56:31.773Z,74.00
2019-03-31T11:59:01.633Z,74.00
2019-03-31T12:01:31.502Z,73.70
2019-03-31T12:04:01.691Z,73.70
2019-03-31T12:21:01.934Z,70.90
2019-03-31T12:47:25.237Z,64.70
2019-03-31T12:53:12.334Z,63.40
2019-03-31T13:02:21.941Z,61.50
2019-03-31T13:05:24.818Z,61.00
2019-03-31T13:19:40.327Z,60.20
2019-03-31T13:22:10.257Z,59.50
2019-03-31T13:24:40.911Z,59.30
2019-03-31T13:27:11.347Z,59.00
2019-03-31T13:29:41.178Z,58.70
2019-03-31T13:32:10.999Z,58.80
2019-03-31T13:34:40.802Z,58.70
2019-03-31T13:37:11.237Z,58.40
2019-03-31T13:39:41.187Z,58.50
2019-03-31T13:42:10.982Z,58.40
2019-03-31T13:44:40.840Z,58.20
2019-03-31T13:47:10.652Z,57.50
2019-03-31T13:49:40.570Z,57.20
2019-03-31T13:52:10.415Z,57.30
2019-03-31T13:54:42.978Z,57.20
2019-03-31T13:57:13.710Z,56.90
2019-03-31T13:59:44.028Z,56.70
2019-03-31T14:02:14.314Z,56.80
2019-03-31T14:04:54.960Z,56.60
2019-03-31T14:07:24.877Z,56.50
2019-03-31T14:09:54.781Z,56.60
2019-03-31T14:12:24.641Z,56.40
2019-03-31T14:17:52.795Z,56.60
2019-03-31T14:20:24.301Z,56.40
2019-03-31T14:22:54.946Z,56.20
2019-03-31T14:25:24.792Z,56.00
2019-03-31T14:27:54.645Z,56.20
2019-03-31T14:30:24.966Z,56.40
2019-03-31T14:32:59.944Z,56.20
2019-03-31T14:35:30.055Z,56.30
2019-03-31T14:37:59.939Z,56.20
2019-03-31T14:40:29.745Z,55.90
2019-03-31T14:42:59.718Z,56.60
2019-03-31T14:45:32.435Z,56.80
2019-03-31T14:48:03.103Z,56.60
2019-03-31T14:50:38.189Z,56.50
2019-03-31T14:53:08.977Z,56.50
2019-03-31T14:55:39.650Z,56.30
2019-03-31T14:58:09.694Z,56.50
2019-03-31T15:00:39.725Z,56.20
2019-03-31T15:03:09.809Z,56.80
2019-03-31T15:05:43.473Z,56.60
2019-03-31T15:08:13.951Z,56.20
2019-03-31T15:10:43.828Z,56.60
2019-03-31T15:13:13.650Z,56.40
2019-03-31T15:15:43.489Z,56.40
2019-03-31T15:18:13.446Z,56.30
2019-03-31T15:20:43.256Z,57.00
2019-03-31T15:23:13.066Z,55.80
2019-03-31T15:25:44.441Z,56.00
2019-03-31T15:28:14.274Z,56.20
2019-03-31T15:30:43.982Z,56.20
2019-03-31T15:33:13.886Z,56.10
2019-03-31T15:35:44.692Z,56.00
2019-03-31T15:38:14.492Z,56.10
2019-03-31T15:40:44.310Z,56.40
2019-03-31T15:43:14.152Z,56.00
2019-03-31T15:45:43.881Z,55.60
2019-03-31T15:48:13.671Z,55.70
2019-03-31T15:50:43.486Z,55.90
2019-03-31T15:53:13.228Z,56.10
2019-03-31T15:55:43.532Z,56.20
2019-03-31T15:58:13.318Z,56.00
2019-03-31T16:00:43.131Z,55.70
2019-03-31T16:03:12.953Z,55.50
2019-03-31T16:05:42.706Z,55.70
2019-03-31T16:08:14.115Z,55.20
2019-03-31T16:10:43.937Z,55.40
2019-03-31T16:13:13.673Z,55.60
2019-03-31T16:15:43.489Z,56.50
2019-03-31T16:18:15.420Z,55.70
2019-03-31T16:20:45.057Z,55.70
2019-03-31T16:23:14.766Z,56.20
2019-03-31T16:25:47.582Z,56.50
2019-03-31T16:28:17.409Z,56.30
2019-03-31T16:30:47.226Z,56.80
2019-03-31T16:33:18.715Z,56.40
2019-03-31T16:35:48.467Z,56.40
2019-03-31T16:38:18.368Z,56.80
2019-03-31T16:40:48.364Z,56.80
2019-03-31T16:43:18.379Z,56.80
2019-03-31T16:45:48.146Z,57.10
2019-03-31T16:48:17.924Z,56.60
2019-03-31T16:50:47.650Z,57.50
2019-03-31T16:53:17.469Z,58.00
2019-03-31T16:55:47.176Z,58.50
2019-03-31T16:58:17.001Z,58.60
2019-03-31T17:00:46.737Z,58.60
2019-03-31T17:03:18.239Z,58.70
2019-03-31T17:05:47.950Z,58.90
2019-03-31T17:08:17.736Z,58.60
2019-03-31T17:10:47.526Z,58.70
2019-03-31T17:13:17.320Z,58.90
2019-03-31T17:15:47.128Z,59.00
2019-03-31T17:18:16.931Z,58.90
2019-03-31T17:20:46.764Z,59.00
2019-03-31T17:23:17.718Z,59.10
2019-03-31T17:25:47.437Z,59.30
2019-03-31T17:28:17.557Z,59.40
2019-03-31T17:30:47.666Z,59.40
2019-03-31T17:33:18.606Z,59.30
2019-03-31T17:35:48.474Z,59.30
2019-03-31T17:38:20.750Z,59.50
2019-03-31T17:40:50.481Z,59.60
2019-03-31T17:43:22.796Z,59.90
2019-03-31T17:45:54.228Z,60.10
2019-03-31T17:48:24.835Z,60.30
2019-03-31T17:50:54.709Z,60.60
2019-03-31T17:53:24.557Z,61.00
2019-03-31T17:55:55.275Z,61.10
2019-03-31T17:58:25.050Z,61.40
2019-03-31T18:00:54.867Z,61.30
2019-03-31T18:03:24.743Z,61.40
2019-03-31T18:05:54.622Z,61.30
2019-03-31T18:08:24.547Z,61.60
2019-03-31T18:10:54.444Z,61.70
2019-03-31T18:13:27.944Z,62.10
2019-03-31T18:15:58.785Z,62.20
2019-03-31T18:18:29.369Z,62.10
2019-03-31T18:20:59.202Z,62.20
2019-03-31T18:23:29.420Z,62.40
2019-03-31T18:25:59.282Z,62.40
2019-03-31T18:28:29.121Z,62.70
2019-03-31T18:30:59.790Z,63.00
2019-03-31T18:33:29.789Z,63.10
2019-03-31T18:36:00.498Z,63.30
2019-03-31T18:38:30.268Z,63.40
2019-03-31T18:41:06.944Z,63.60
2019-03-31T18:43:50.613Z,63.80
2019-03-31T18:46:10.083Z,63.90
2019-03-31T18:48:40.070Z,64.30
2019-03-31T18:51:11.791Z,64.60
2019-03-31T18:53:43.197Z,64.70
2019-03-31T18:56:20.373Z,64.80
2019-03-31T18:59:00.888Z,65.10
2019-03-31T19:01:45.376Z,65.20
2019-03-31T19:04:25.852Z,65.60
2019-03-31T19:07:04.059Z,65.60
2019-03-31T19:09:35.685Z,65.80
2019-03-31T19:12:12.893Z,66.00
2019-03-31T19:14:47.039Z,66.20
2019-03-31T19:17:18.796Z,66.30
2019-03-31T19:19:53.293Z,66.40
2019-03-31T19:22:33.588Z,66.20
2019-03-31T19:25:11.117Z,66.30
2019-03-31T19:27:47.686Z,66.40
2019-03-31T19:30:31.362Z,66.30
2019-03-31T19:33:05.471Z,66.30
2019-03-31T19:35:36.934Z,66.20
2019-03-31T19:38:13.860Z,66.20
2019-03-31T19:41:04.001Z,66.40
2019-03-31T19:43:47.360Z,66.20
2019-03-31T19:46:21.510Z,66.10
2019-03-31T19:49:04.744Z,66.20
2019-03-31T19:51:42.211Z,66.10
2019-03-31T19:54:21.919Z,66.00
2019-03-31T19:56:56.422Z,66.30
2019-03-31T19:59:27.839Z,66.10
2019-03-31T20:02:14.399Z,66.30
2019-03-31T20:05:01.993Z,66.30
2019-03-31T20:07:36.442Z,66.40
2019-03-31T20:10:24.262Z,66.40
2019-03-31T20:12:55.643Z,66.70
2019-03-31T20:15:29.814Z,66.60
2019-03-31T20:18:01.196Z,66.90
2019-03-31T20:20:35.427Z,66.90
2019-03-31T20:23:09.814Z,67.10
2019-03-31T20:25:49.905Z,67.30
2019-03-31T20:28:21.346Z,67.60
2019-03-31T20:31:04.616Z,67.30
2019-03-31T20:33:36.624Z,67.50
2019-03-31T20:36:09.828Z,67.40
2019-03-31T20:38:41.223Z,67.60
2019-03-31T20:41:12.629Z,67.50
2019-03-31T20:43:53.809Z,67.80
2019-03-31T20:46:24.770Z,67.80
2019-03-31T20:48:54.557Z,67.70
2019-03-31T20:51:24.631Z,67.80
2019-03-31T20:53:54.417Z,67.90
2019-03-31T20:56:25.884Z,68.00
2019-03-31T20:58:55.674Z,67.90
2019-03-31T21:01:25.599Z,68.10
2019-03-31T21:03:55.412Z,68.30
2019-03-31T21:06:27.386Z,68.40
2019-03-31T21:08:57.160Z,68.50
2019-03-31T21:11:26.893Z,68.40
2019-03-31T21:13:57.182Z,68.60
2019-03-31T21:16:27.490Z,68.80
2019-03-31T21:18:57.268Z,68.90
2019-03-31T21:21:27.066Z,69.20
2019-03-31T21:23:56.949Z,69.00
2019-03-31T21:26:26.685Z,69.20
2019-03-31T21:28:56.467Z,69.30
2019-03-31T21:31:26.220Z,69.30
2019-03-31T21:33:56.363Z,70.30
2019-03-31T21:36:26.835Z,69.40
2019-03-31T21:38:56.748Z,69.60
2019-03-31T21:41:26.516Z,69.80
2019-03-31T21:43:56.722Z,69.80
2019-03-31T21:46:26.604Z,70.00
2019-03-31T21:48:56.329Z,70.10
2019-03-31T21:51:28.931Z,70.10
2019-03-31T21:53:58.870Z,70.20
2019-03-31T21:56:28.700Z,70.40
2019-03-31T21:58:58.497Z,70.50
2019-03-31T22:01:28.243Z,70.40
2019-03-31T22:03:58.116Z,70.40
2019-03-31T22:06:27.834Z,70.30
2019-03-31T22:08:57.681Z,70.40
2019-03-31T22:11:27.748Z,70.40
2019-03-31T22:13:57.532Z,70.40
2019-03-31T22:16:27.243Z,70.50
2019-03-31T22:18:56.892Z,70.60
2019-03-31T22:21:26.639Z,70.70
2019-03-31T22:23:58.087Z,70.70
2019-03-31T22:26:28.205Z,70.60
2019-03-31T22:28:58.086Z,70.50
2019-03-31T22:31:27.866Z,70.70
2019-03-31T22:33:58.249Z,70.60
2019-03-31T22:36:27.971Z,70.70
2019-03-31T22:38:58.619Z,70.60
2019-03-31T22:41:28.466Z,70.70
2019-03-31T22:43:59.171Z,70.70
2019-03-31T22:46:28.835Z,70.60
2019-03-31T22:48:58.838Z,70.80
2019-03-31T22:51:29.410Z,70.70
2019-03-31T22:53:59.197Z,70.80
2019-03-31T22:56:28.994Z,71.70
2019-03-31T22:58:58.698Z,71.10
2019-03-31T23:01:28.560Z,71.10
2019-03-31T23:03:59.467Z,71.00
2019-03-31T23:06:29.139Z,71.00
2019-03-31T23:08:59.091Z,72.00
2019-03-31T23:11:28.935Z,71.30
2019-03-31T23:13:58.758Z,71.30
2019-03-31T23:16:28.424Z,71.20
2019-03-31T23:18:58.234Z,71.40
2019-03-31T23:21:29.512Z,71.40
2019-03-31T23:23:59.971Z,71.30
2019-03-31T23:26:29.758Z,71.70
2019-03-31T23:28:59.489Z,71.70
2019-03-31T23:31:30.041Z,72.10
2019-03-31T23:33:59.779Z,72.10
2019-03-31T23:36:29.528Z,72.40
2019-03-31T23:38:59.480Z,72.40
2019-03-31T23:41:29.218Z,72.60
2019-03-31T23:43:59.030Z,72.50
2019-03-31T23:46:28.786Z,72.60
2019-03-31T23:48:58.508Z,72.20
2019-03-31T23:51:28.810Z,72.00
2019-03-31T23:53:58.547Z,72.00
2019-03-31T23:56:29.277Z,72.10
2019-03-31T23:58:59.099Z,72.10
